Terminal Aerodrome Forecast
Issued by NWS

Home | Current Version | Previous Version | Text Only | Print | Product List | Glossary On
Versions: 1 2 3 4 5 6 7 8 9 10 11 12 13 14 15 16 17 18 19 20 21 22 23 24 25 26 27 28 29 30 31 32 33 34 35 36 37
000
FTUS45 KLKN 251125
TAFELY
TAF
KELY 251125Z 2512/2612 35013G22KT P6SM VCSH OVC045
     FM251500 34018G32KT 5SM -SHSN OVC020
     FM260200 33010G20KT P6SM VCSH OVC035
     FM260600 34007KT P6SM BKN060=

USA.gov is the U.S. government's official web portal to all federal, state and local government web resources and services.